createdAt,value
2023-03-14T00:01:21.412Z,1.91
2023-03-14T00:04:07.022Z,1.90
2023-03-14T00:06:52.314Z,1.85
2023-03-14T00:09:37.599Z,1.79
2023-03-14T00:12:22.766Z,1.78
2023-03-14T00:15:09.061Z,1.76
2023-03-14T00:17:54.420Z,1.71
2023-03-14T00:20:39.889Z,1.67
2023-03-14T00:23:25.090Z,1.66
2023-03-14T00:26:16.409Z,1.62
2023-03-14T00:29:02.082Z,1.60
2023-03-14T00:31:47.919Z,1.60
2023-03-14T00:34:35.051Z,1.59
2023-03-14T00:37:20.719Z,1.52
2023-03-14T00:40:08.383Z,1.50
2023-03-14T00:42:53.944Z,1.47
2023-03-14T00:45:39.338Z,1.47
2023-03-14T00:48:24.758Z,1.49
2023-03-14T00:51:10.593Z,1.56
2023-03-14T00:53:56.081Z,1.63
2023-03-14T00:56:41.258Z,1.68
2023-03-14T00:59:26.464Z,1.72
2023-03-14T01:02:11.733Z,1.78
2023-03-14T01:04:57.600Z,1.84
2023-03-14T01:07:43.186Z,1.90
2023-03-14T01:10:28.701Z,1.97
2023-03-14T01:13:14.440Z,2.03
2023-03-14T01:16:06.397Z,2.10
2023-03-14T01:18:56.047Z,2.18
2023-03-14T01:21:41.734Z,2.22
2023-03-14T01:24:27.244Z,2.24
2023-03-14T01:27:12.746Z,2.30
2023-03-14T01:29:58.455Z,2.31
2023-03-14T01:32:44.068Z,2.34
2023-03-14T01:35:29.545Z,2.36
2023-03-14T01:38:16.290Z,2.37
2023-03-14T01:41:02.440Z,2.33
2023-03-14T01:43:48.878Z,2.28
2023-03-14T01:46:46.647Z,2.22
2023-03-14T01:49:36.989Z,2.12
2023-03-14T01:52:36.247Z,2.05
2023-03-14T01:55:26.151Z,1.83
2023-03-14T01:58:11.546Z,1.71
2023-03-14T02:00:59.889Z,1.55
2023-03-14T02:03:57.462Z,1.51
2023-03-14T02:06:52.509Z,1.38
2023-03-14T02:09:42.330Z,1.29
2023-03-14T02:12:33.600Z,1.21
2023-03-14T02:15:37.856Z,1.11
2023-03-14T02:18:32.347Z,1.01
2023-03-14T02:21:49.343Z,0.99
2023-03-14T02:24:44.724Z,0.96
2023-03-14T02:27:32.385Z,0.95
2023-03-14T02:30:27.693Z,0.93
2023-03-14T02:33:21.847Z,0.93
2023-03-14T02:36:12.480Z,0.95
2023-03-14T02:39:22.823Z,0.98
2023-03-14T02:42:08.440Z,0.97
2023-03-14T02:45:16.504Z,0.97
2023-03-14T02:48:29.317Z,0.99
2023-03-14T02:51:16.275Z,1.03
2023-03-14T02:54:05.024Z,1.08
2023-03-14T02:56:50.659Z,1.09
2023-03-14T02:59:35.996Z,1.12
2023-03-14T03:02:29.092Z,1.13
2023-03-14T03:05:14.758Z,1.14
2023-03-14T03:08:00.129Z,1.13
2023-03-14T03:10:45.682Z,1.14
2023-03-14T03:13:32.099Z,1.14
2023-03-14T03:16:20.038Z,1.17
2023-03-14T03:19:05.493Z,1.20
2023-03-14T03:21:50.872Z,1.20
2023-03-14T03:24:36.422Z,1.21
2023-03-14T03:27:22.093Z,1.21
2023-03-14T03:30:08.626Z,1.23
2023-03-14T03:32:55.216Z,1.19
2023-03-14T03:35:45.715Z,1.19
2023-03-14T03:38:31.364Z,1.20
2023-03-14T03:41:19.074Z,1.16
2023-03-14T03:44:07.063Z,1.14
2023-03-14T03:46:53.332Z,1.13
2023-03-14T03:49:38.597Z,1.11
2023-03-14T03:52:24.324Z,1.08
2023-03-14T03:55:10.106Z,1.04
2023-03-14T03:57:55.869Z,1.04
2023-03-14T04:00:41.802Z,1.01
2023-03-14T04:03:27.560Z,1.01
2023-03-14T04:06:15.639Z,1.02
2023-03-14T04:09:05.224Z,1.04
2023-03-14T04:12:12.238Z,1.02
2023-03-14T04:15:36.259Z,1.01
2023-03-14T04:18:28.693Z,1.01
2023-03-14T04:21:15.350Z,0.99
2023-03-14T04:24:07.487Z,0.96
2023-03-14T04:26:54.590Z,0.93
2023-03-14T04:29:39.882Z,0.91
2023-03-14T04:32:25.413Z,0.83
2023-03-14T04:35:10.841Z,0.81
2023-03-14T04:37:56.556Z,0.76
2023-03-14T04:40:43.467Z,0.72
2023-03-14T04:43:29.597Z,0.68
2023-03-14T04:46:21.107Z,0.65
2023-03-14T04:49:07.857Z,0.67
2023-03-14T04:51:54.378Z,0.65
2023-03-14T04:54:42.130Z,0.66
2023-03-14T04:57:27.919Z,0.66
2023-03-14T05:00:14.526Z,0.66
2023-03-14T05:03:12.289Z,0.65
2023-03-14T05:06:10.452Z,0.65
2023-03-14T05:09:02.034Z,0.65
2023-03-14T05:12:13.960Z,0.60
2023-03-14T05:15:11.110Z,0.54
2023-03-14T05:18:11.279Z,0.45
2023-03-14T05:21:14.323Z,0.37
2023-03-14T05:24:15.005Z,0.30
2023-03-14T05:27:26.969Z,0.26
2023-03-14T05:30:33.463Z,0.18
2023-03-14T05:33:42.338Z,0.11
2023-03-14T05:36:53.915Z,0.06
2023-03-14T05:39:54.943Z,-0.05
2023-03-14T05:42:56.978Z,-0.13
2023-03-14T05:46:01.397Z,-0.19
2023-03-14T05:48:49.892Z,-0.20
2023-03-14T05:51:45.632Z,-0.26
2023-03-14T05:54:57.192Z,-0.32
2023-03-14T05:58:01.364Z,-0.31
2023-03-14T06:01:15.955Z,-0.37
2023-03-14T06:04:26.012Z,-0.40
2023-03-14T06:07:15.391Z,-0.42
2023-03-14T06:10:01.200Z,-0.49
2023-03-14T06:12:46.956Z,-0.53
2023-03-14T06:15:34.142Z,-0.56
2023-03-14T06:18:19.673Z,-0.58
2023-03-14T06:21:05.304Z,-0.62
2023-03-14T06:23:50.974Z,-0.64
2023-03-14T06:26:38.784Z,-0.66
2023-03-14T06:29:24.196Z,-0.67
2023-03-14T06:32:10.042Z,-0.71
2023-03-14T06:34:58.271Z,-0.75
2023-03-14T06:37:43.863Z,-0.78
2023-03-14T06:40:29.671Z,-0.80
2023-03-14T06:43:24.580Z,-0.79
2023-03-14T06:46:11.354Z,-0.82
2023-03-14T06:48:59.143Z,-0.82
2023-03-14T06:51:45.599Z,-0.82
2023-03-14T06:54:31.576Z,-0.80
2023-03-14T06:57:17.213Z,-0.80
2023-03-14T07:00:04.204Z,-0.79
2023-03-14T07:02:49.466Z,-0.76
2023-03-14T07:05:43.310Z,-0.75
2023-03-14T07:08:29.555Z,-0.75
2023-03-14T07:11:15.075Z,-0.70
2023-03-14T07:14:00.608Z,-0.63
2023-03-14T07:16:46.609Z,-0.62
2023-03-14T07:19:32.053Z,-0.57
2023-03-14T07:22:17.457Z,-0.50
2023-03-14T07:25:03.251Z,-0.46
2023-03-14T07:27:49.265Z,-0.40
2023-03-14T07:30:35.180Z,-0.34
2023-03-14T07:33:24.126Z,-0.22
2023-03-14T07:36:11.940Z,-0.14
2023-03-14T07:39:00.786Z,-0.08
2023-03-14T07:42:00.302Z,-0.03
2023-03-14T07:45:12.461Z,0.04
2023-03-14T07:47:58.736Z,0.09
2023-03-14T07:50:43.802Z,0.19
2023-03-14T07:53:29.052Z,0.26
2023-03-14T07:56:14.294Z,0.33
2023-03-14T07:58:59.605Z,0.44
2023-03-14T08:01:45.001Z,0.59
2023-03-14T08:04:30.245Z,0.75
2023-03-14T08:07:15.704Z,0.90
2023-03-14T08:10:01.114Z,1.01
2023-03-14T08:12:46.534Z,1.13
2023-03-14T08:15:32.159Z,1.19
2023-03-14T08:18:17.663Z,1.16
2023-03-14T08:21:03.340Z,1.16
2023-03-14T08:23:48.843Z,1.19
2023-03-14T08:26:34.288Z,1.27
2023-03-14T08:29:19.738Z,1.33
2023-03-14T08:32:05.670Z,1.33
2023-03-14T08:34:51.437Z,1.28
2023-03-14T08:37:37.288Z,1.27
2023-03-14T08:40:22.618Z,1.17
2023-03-14T08:43:07.877Z,1.13
2023-03-14T08:45:53.279Z,1.16
2023-03-14T08:48:38.740Z,1.22
2023-03-14T08:51:24.071Z,1.29
2023-03-14T08:54:12.786Z,1.34
2023-03-14T08:56:59.214Z,1.41
2023-03-14T08:59:44.904Z,1.46
2023-03-14T09:02:30.527Z,1.51
2023-03-14T09:05:16.248Z,1.55
2023-03-14T09:08:02.197Z,1.61
2023-03-14T09:10:47.571Z,1.67
2023-03-14T09:13:32.924Z,1.77
2023-03-14T09:16:18.387Z,1.82
2023-03-14T09:19:04.126Z,1.90
2023-03-14T09:21:49.833Z,2.00
2023-03-14T09:24:35.502Z,2.09
2023-03-14T09:27:20.789Z,2.19
2023-03-14T09:30:06.717Z,2.34
2023-03-14T09:32:52.091Z,2.47
2023-03-14T09:35:37.604Z,2.65
2023-03-14T09:38:23.471Z,2.74
2023-03-14T09:41:32.892Z,2.89
2023-03-14T09:44:29.908Z,3.07
2023-03-14T09:47:17.654Z,3.15
2023-03-14T09:50:04.463Z,3.16
2023-03-14T09:52:57.986Z,3.23
2023-03-14T09:55:44.131Z,3.26
2023-03-14T09:58:31.468Z,3.34
2023-03-14T10:01:23.372Z,3.39
2023-03-14T10:04:16.385Z,3.47
2023-03-14T10:07:03.685Z,3.54
2023-03-14T10:09:52.098Z,3.61
2023-03-14T10:12:40.171Z,3.75
2023-03-14T10:15:32.340Z,3.92
2023-03-14T10:18:17.716Z,4.02
2023-03-14T10:21:19.756Z,4.24
2023-03-14T10:24:28.592Z,4.49
2023-03-14T10:27:32.817Z,4.86
2023-03-14T10:30:39.225Z,4.89
2023-03-14T10:33:26.282Z,4.84
2023-03-14T10:36:41.376Z,4.97
2023-03-14T10:39:33.110Z,5.08
2023-03-14T10:42:25.344Z,5.17
2023-03-14T10:45:31.656Z,5.24
2023-03-14T10:48:25.058Z,5.27
2023-03-14T10:51:18.216Z,5.28
2023-03-14T10:54:13.238Z,5.32
2023-03-14T10:57:01.685Z,5.36
2023-03-14T10:59:47.156Z,5.42
2023-03-14T11:02:35.490Z,5.42
2023-03-14T11:05:40.279Z,5.47
2023-03-14T11:08:42.647Z,5.53
2023-03-14T11:11:31.808Z,5.61
2023-03-14T11:14:30.542Z,5.79
2023-03-14T11:17:42.227Z,5.97
2023-03-14T11:20:27.533Z,6.17
2023-03-14T11:23:44.379Z,6.32
2023-03-14T11:26:50.025Z,6.37
2023-03-14T11:30:11.288Z,6.41
2023-03-14T11:33:17.824Z,6.47
2023-03-14T11:36:12.925Z,6.53
2023-03-14T11:39:00.480Z,6.60
2023-03-14T11:42:05.777Z,6.51
2023-03-14T11:44:51.563Z,6.41
2023-03-14T11:47:42.278Z,6.42
2023-03-14T11:50:31.160Z,6.35
2023-03-14T11:53:41.603Z,6.30
2023-03-14T11:56:38.925Z,6.29
2023-03-14T11:59:34.618Z,6.23
2023-03-14T12:02:45.100Z,6.39
2023-03-14T12:06:18.806Z,6.57
2023-03-14T12:09:07.010Z,6.71
2023-03-14T12:12:02.823Z,6.85
2023-03-14T12:14:56.133Z,6.67
2023-03-14T12:17:46.737Z,6.49
2023-03-14T12:20:32.271Z,6.55
2023-03-14T12:23:17.825Z,6.53
2023-03-14T12:26:23.129Z,6.46
2023-03-14T12:29:10.189Z,6.16
2023-03-14T12:32:02.082Z,6.13
2023-03-14T12:34:47.756Z,6.15
2023-03-14T12:37:47.296Z,6.04
2023-03-14T12:40:42.466Z,5.97
2023-03-14T12:43:31.176Z,5.89
2023-03-14T12:46:19.842Z,6.02
2023-03-14T12:49:09.915Z,6.29
2023-03-14T12:52:00.733Z,6.58
2023-03-14T12:55:08.130Z,6.67
2023-03-14T12:58:19.619Z,6.67
2023-03-14T13:01:08.641Z,6.53
2023-03-14T13:03:58.171Z,6.54
2023-03-14T13:06:58.191Z,6.36
2023-03-14T13:10:05.339Z,5.95
2023-03-14T13:13:26.853Z,5.64
2023-03-14T13:16:18.272Z,5.44
2023-03-14T13:19:36.176Z,5.43
2023-03-14T13:22:34.483Z,5.29
2023-03-14T13:25:22.147Z,5.11
2023-03-14T13:28:10.892Z,5.09
2023-03-14T13:31:01.158Z,5.07
2023-03-14T13:33:46.566Z,4.90
2023-03-14T13:36:31.993Z,4.94
2023-03-14T13:39:26.486Z,5.08
2023-03-14T13:42:16.226Z,5.49
2023-03-14T13:45:01.589Z,5.71
2023-03-14T13:47:48.923Z,5.98
2023-03-14T13:50:34.379Z,6.35
2023-03-14T13:53:19.829Z,6.68
2023-03-14T13:56:08.011Z,6.82
2023-03-14T13:58:53.631Z,7.07
2023-03-14T14:01:39.719Z,7.42
2023-03-14T14:04:28.186Z,7.79
2023-03-14T14:07:21.011Z,7.49
2023-03-14T14:10:07.732Z,7.44
2023-03-14T14:13:04.363Z,7.45
2023-03-14T14:15:54.404Z,7.24
2023-03-14T14:18:40.590Z,7.35
2023-03-14T14:21:27.009Z,7.19
2023-03-14T14:24:17.055Z,7.01
2023-03-14T14:27:13.451Z,7.02
2023-03-14T14:30:25.404Z,7.32
2023-03-14T14:33:20.515Z,7.03
2023-03-14T14:36:13.103Z,6.85
2023-03-14T14:39:10.203Z,6.45
2023-03-14T14:41:55.820Z,6.29
2023-03-14T14:44:44.173Z,6.06
2023-03-14T14:47:30.862Z,5.65
2023-03-14T14:50:38.317Z,4.78
2023-03-14T14:53:37.567Z,4.20
2023-03-14T14:56:28.075Z,4.00
2023-03-14T14:59:26.190Z,4.14
2023-03-14T15:02:25.387Z,4.46
2023-03-14T15:05:39.433Z,4.16
2023-03-14T15:08:27.063Z,3.80
2023-03-14T15:11:30.595Z,3.52
2023-03-14T15:14:16.026Z,3.48
2023-03-14T15:17:01.856Z,3.29
2023-03-14T15:19:47.239Z,3.34
2023-03-14T15:22:33.265Z,3.29
2023-03-14T15:25:40.407Z,3.33
2023-03-14T15:28:26.987Z,3.27
2023-03-14T15:31:13.989Z,3.30
2023-03-14T15:33:59.402Z,3.40
2023-03-14T15:36:44.798Z,3.48
2023-03-14T15:39:29.981Z,3.50
2023-03-14T15:42:15.327Z,3.51
2023-03-14T15:45:00.900Z,3.54
2023-03-14T15:47:46.160Z,3.58
2023-03-14T15:50:31.668Z,3.67
2023-03-14T15:53:16.983Z,3.75
2023-03-14T15:56:02.460Z,4.18
2023-03-14T15:58:48.542Z,4.65
2023-03-14T16:01:34.178Z,4.96
2023-03-14T16:04:20.261Z,5.16
2023-03-14T16:07:05.834Z,5.32
2023-03-14T16:09:51.229Z,5.34
2023-03-14T16:12:36.749Z,5.61
2023-03-14T16:15:21.979Z,5.93
2023-03-14T16:18:20.738Z,6.24
2023-03-14T16:21:15.655Z,6.39
2023-03-14T16:24:03.061Z,6.57
2023-03-14T16:26:48.897Z,6.54
2023-03-14T16:29:34.442Z,6.48
2023-03-14T16:32:19.974Z,6.57
2023-03-14T16:35:05.820Z,6.67
2023-03-14T16:37:51.185Z,6.84
2023-03-14T16:40:36.496Z,6.97
2023-03-14T16:43:21.842Z,6.81
2023-03-14T16:46:11.769Z,6.81
2023-03-14T16:48:57.836Z,6.83
2023-03-14T16:51:43.409Z,6.84
2023-03-14T16:54:29.014Z,6.71
2023-03-14T16:57:14.613Z,6.62
2023-03-14T16:59:59.910Z,6.67
2023-03-14T17:02:45.182Z,6.73
2023-03-14T17:05:31.437Z,6.46
2023-03-14T17:08:18.465Z,6.13
2023-03-14T17:11:04.293Z,6.06
2023-03-14T17:13:49.888Z,5.81
2023-03-14T17:16:35.236Z,5.75
2023-03-14T17:19:21.196Z,5.62
2023-03-14T17:22:21.618Z,5.46
2023-03-14T17:25:08.800Z,5.26
2023-03-14T17:27:54.376Z,5.12
2023-03-14T17:30:39.546Z,4.98
2023-03-14T17:33:24.988Z,4.82
2023-03-14T17:36:13.638Z,4.74
2023-03-14T17:38:58.977Z,4.61
2023-03-14T17:41:47.361Z,4.56
2023-03-14T17:44:33.676Z,4.50
2023-03-14T17:47:19.066Z,4.42
2023-03-14T17:50:05.457Z,4.40
2023-03-14T17:52:50.943Z,4.33
2023-03-14T17:55:36.340Z,4.30
2023-03-14T17:58:21.875Z,4.22
2023-03-14T18:01:17.007Z,4.20
2023-03-14T18:04:03.380Z,4.15
2023-03-14T18:06:48.936Z,4.11
2023-03-14T18:09:34.331Z,4.03
2023-03-14T18:12:19.712Z,4.00
2023-03-14T18:15:05.835Z,3.94
2023-03-14T18:17:51.287Z,3.90
2023-03-14T18:20:36.809Z,3.88
2023-03-14T18:23:23.200Z,3.86
2023-03-14T18:26:08.648Z,3.82
2023-03-14T18:28:55.225Z,3.79
2023-03-14T18:31:42.268Z,3.73
2023-03-14T18:34:27.679Z,3.64
2023-03-14T18:37:13.085Z,3.54
2023-03-14T18:39:58.623Z,3.55
2023-03-14T18:42:44.786Z,3.49
2023-03-14T18:45:31.332Z,3.42
2023-03-14T18:48:16.613Z,3.33
2023-03-14T18:51:02.093Z,3.32
2023-03-14T18:53:50.046Z,3.27
2023-03-14T18:56:35.441Z,3.29
2023-03-14T18:59:20.907Z,3.26
2023-03-14T19:02:06.729Z,3.22
2023-03-14T19:04:52.937Z,3.19
2023-03-14T19:07:38.308Z,3.17
2023-03-14T19:10:24.760Z,3.10
2023-03-14T19:13:10.761Z,3.04
2023-03-14T19:15:56.108Z,2.95
2023-03-14T19:18:42.080Z,2.97
2023-03-14T19:21:30.464Z,2.97
2023-03-14T19:24:19.285Z,2.84
2023-03-14T19:27:04.902Z,2.75
2023-03-14T19:29:50.674Z,2.66
2023-03-14T19:32:36.359Z,2.54
2023-03-14T19:35:21.801Z,2.44
2023-03-14T19:38:07.637Z,2.42
2023-03-14T19:40:59.543Z,2.35
2023-03-14T19:43:44.921Z,2.33
2023-03-14T19:46:33.084Z,2.26
2023-03-14T19:49:19.048Z,2.19
2023-03-14T19:52:04.599Z,2.11
2023-03-14T19:54:50.300Z,2.04
2023-03-14T19:57:35.739Z,1.93
2023-03-14T20:00:22.212Z,1.81
2023-03-14T20:03:07.860Z,1.70
2023-03-14T20:05:54.128Z,1.60
2023-03-14T20:08:40.151Z,1.49
2023-03-14T20:11:25.673Z,1.44
2023-03-14T20:14:11.791Z,1.35
2023-03-14T20:16:57.491Z,1.39
2023-03-14T20:19:43.316Z,1.35
2023-03-14T20:22:29.717Z,1.34
2023-03-14T20:25:18.906Z,1.25
2023-03-14T20:28:05.317Z,1.19
2023-03-14T20:30:50.829Z,1.03
2023-03-14T20:33:36.402Z,0.94
2023-03-14T20:36:22.073Z,0.80
2023-03-14T20:39:07.648Z,0.71
2023-03-14T20:41:53.024Z,0.56
2023-03-14T20:44:38.417Z,0.51
2023-03-14T20:47:24.249Z,0.54
2023-03-14T20:50:10.691Z,0.68
2023-03-14T20:52:56.182Z,0.76
2023-03-14T20:55:41.557Z,0.76
2023-03-14T20:58:26.938Z,0.77
2023-03-14T21:04:16.411Z,0.79
2023-03-14T21:07:02.008Z,0.64
2023-03-14T21:09:47.310Z,0.42
2023-03-14T21:12:32.561Z,0.25
2023-03-14T21:15:17.788Z,0.05
2023-03-14T21:18:05.750Z,-0.11
2023-03-14T21:20:53.652Z,-0.27
2023-03-14T21:23:39.146Z,-0.50
2023-03-14T21:26:24.600Z,-0.74
2023-03-14T21:29:09.968Z,-0.96
2023-03-14T21:31:55.510Z,-1.03
2023-03-14T21:34:41.452Z,-1.02
2023-03-14T21:37:28.055Z,-0.94
2023-03-14T21:40:13.869Z,-0.79
2023-03-14T21:42:59.775Z,-0.72
2023-03-14T21:45:45.298Z,-0.72
2023-03-14T21:48:31.108Z,-0.63
2023-03-14T21:51:16.279Z,-0.54
2023-03-14T21:54:01.795Z,-0.49
2023-03-14T21:56:47.362Z,-0.43
2023-03-14T21:59:34.764Z,-0.39
2023-03-14T22:02:21.341Z,-0.28
2023-03-14T22:05:07.561Z,-0.21
2023-03-14T22:07:53.197Z,-0.02
2023-03-14T22:10:50.798Z,-0.02
2023-03-14T22:13:36.217Z,-0.03
2023-03-14T22:16:21.737Z,0.01
2023-03-14T22:19:07.032Z,0.02
2023-03-14T22:21:52.774Z,-0.02
2023-03-14T22:24:37.981Z,-0.04
2023-03-14T22:27:23.383Z,-0.11
2023-03-14T22:30:09.586Z,-0.16
2023-03-14T22:32:55.332Z,-0.22
2023-03-14T22:35:40.882Z,-0.31
2023-03-14T22:38:26.045Z,-0.30
2023-03-14T22:41:11.398Z,-0.34
2023-03-14T22:43:56.706Z,-0.27
2023-03-14T22:46:42.082Z,-0.31
2023-03-14T22:49:30.788Z,-0.40
2023-03-14T22:52:16.503Z,-0.36
2023-03-14T22:55:02.108Z,-0.26
2023-03-14T22:57:51.764Z,-0.24
2023-03-14T23:00:37.216Z,-0.20
2023-03-14T23:03:22.872Z,-0.26
2023-03-14T23:06:08.752Z,-0.27
2023-03-14T23:08:54.138Z,-0.36
2023-03-14T23:11:40.140Z,-0.44
2023-03-14T23:14:25.388Z,-0.49
2023-03-14T23:17:11.013Z,-0.56
2023-03-14T23:19:58.794Z,-0.55
2023-03-14T23:22:44.325Z,-0.57
2023-03-14T23:25:31.787Z,-0.44
2023-03-14T23:28:19.283Z,-0.38
2023-03-14T23:31:06.526Z,-0.44
2023-03-14T23:33:52.240Z,-0.46
2023-03-14T23:36:38.357Z,-0.59
2023-03-14T23:39:23.628Z,-0.71
2023-03-14T23:42:09.100Z,-0.82
2023-03-14T23:44:54.752Z,-0.83
2023-03-14T23:47:41.452Z,-0.82
2023-03-14T23:50:26.937Z,-0.77
2023-03-14T23:53:12.370Z,-0.71
2023-03-14T23:55:58.389Z,-0.68
2023-03-14T23:58:44.338Z,-0.69
